Time;durP1;ratioP1;P1;durP2;ratioP2;P2;SDS_P1;SDS_P2;PMS_P1;PMS_P2;Temp;Humidity;BMP_temperature;BMP_pressure;BME280_temperature;BME280_humidity;BME280_pressure;Samples;Min_cycle;Max_cycle;Signal;HPM_P1;HPM_P2
2023/02/09 00:01:36;;;;;;;25.88;14.45;;;-1.70;99.90;;;;;;4898796;29;20063;-79
2023/02/09 00:04:03;;;;;;;24.90;14.15;;;-1.70;99.90;;;;;;4899602;29;20074;-79
2023/02/09 00:06:30;;;;;;;25.58;13.68;;;-1.70;99.90;;;;;;4899822;29;20430;-81
2023/02/09 00:08:57;;;;;;;26.58;13.43;;;-1.70;99.90;;;;;;4878885;29;20162;-80
2023/02/09 00:14:15;;;;;;;21.92;12.95;;;-1.70;99.90;;;;;;4893786;29;20052;-81
2023/02/09 00:16:42;;;;;;;24.92;13.45;;;-1.70;99.90;;;;;;4881408;29;20471;-80
2023/02/09 00:19:10;;;;;;;24.85;14.48;;;-1.80;99.90;;;;;;4895223;29;20053;-80
2023/02/09 00:21:38;;;;;;;25.92;14.52;;;-1.80;99.90;;;;;;4888441;29;20060;-80
2023/02/09 00:24:05;;;;;;;26.02;14.52;;;-1.80;99.90;;;;;;4902494;29;20060;-80
2023/02/09 00:26:32;;;;;;;26.88;14.90;;;-1.80;99.90;;;;;;4898849;29;20068;-80
2023/02/09 00:28:59;;;;;;;26.27;14.27;;;-1.80;99.90;;;;;;4882393;29;20136;-80
2023/02/09 00:31:26;;;;;;;22.40;13.98;;;-1.80;99.90;;;;;;4896482;29;20052;-81
2023/02/09 00:33:52;;;;;;;26.88;14.88;;;-1.80;99.90;;;;;;4900339;29;20056;-80
2023/02/09 00:36:19;;;;;;;30.70;14.52;;;-1.90;99.90;;;;;;4897590;29;20060;-80
2023/02/09 00:38:46;;;;;;;23.33;12.80;;;-1.90;99.90;;;;;;4896778;29;20057;-79
2023/02/09 00:41:14;;;;;;;24.40;13.90;;;-1.90;99.90;;;;;;4891173;29;20054;-79
2023/02/09 00:43:41;;;;;;;27.90;14.15;;;-1.90;99.90;;;;;;4880308;29;20136;-80
2023/02/09 00:46:08;;;;;;;22.08;13.65;;;-1.90;99.90;;;;;;4898944;29;20053;-80
2023/02/09 00:48:35;;;;;;;25.65;14.63;;;-1.90;99.90;;;;;;4900226;29;20135;-80
2023/02/09 00:51:02;;;;;;;24.17;13.70;;;-1.90;99.90;;;;;;4902203;29;20049;-79
2023/02/09 00:53:28;;;;;;;26.50;14.55;;;-1.90;99.90;;;;;;4897218;29;20139;-81
2023/02/09 00:55:55;;;;;;;21.95;12.85;;;-1.90;99.90;;;;;;4895176;29;20060;-80
2023/02/09 00:58:22;;;;;;;20.83;12.82;;;-1.90;99.90;;;;;;4893368;29;20139;-81
2023/02/09 01:00:49;;;;;;;27.90;14.68;;;-2.00;99.90;;;;;;4897974;29;20053;-80
2023/02/09 01:03:16;;;;;;;30.42;14.95;;;-2.00;99.90;;;;;;4894036;29;20414;-80
2023/02/09 01:05:42;;;;;;;25.15;13.30;;;-2.00;99.90;;;;;;4872362;29;20053;-80
2023/02/09 01:08:09;;;;;;;24.38;13.50;;;-2.00;99.90;;;;;;4897404;29;20067;-80
2023/02/09 01:10:37;;;;;;;26.02;13.85;;;-2.00;99.90;;;;;;4900414;29;20120;-79
2023/02/09 01:13:04;;;;;;;23.40;13.43;;;-2.10;99.90;;;;;;4901050;29;20056;-80
2023/02/09 01:15:31;;;;;;;24.88;13.60;;;-2.10;99.90;;;;;;4898101;29;20090;-79
2023/02/09 01:17:58;;;;;;;25.83;14.57;;;-2.10;99.90;;;;;;4900439;29;20113;-81
2023/02/09 01:20:25;;;;;;;26.00;14.85;;;-2.10;99.90;;;;;;4895251;29;20056;-79
2023/02/09 01:22:52;;;;;;;29.77;14.30;;;-2.10;99.90;;;;;;4891439;29;20141;-81
2023/02/09 01:25:19;;;;;;;24.95;13.35;;;-2.10;99.90;;;;;;4888273;29;20067;-80
2023/02/09 01:27:45;;;;;;;24.67;14.32;;;-2.10;99.90;;;;;;4900637;29;20127;-79
2023/02/09 01:30:13;;;;;;;24.52;13.32;;;-2.10;99.90;;;;;;4895485;29;20152;-80
2023/02/09 01:32:40;;;;;;;23.48;13.80;;;-2.10;99.90;;;;;;4901054;29;20053;-79
2023/02/09 01:35:07;;;;;;;23.33;13.73;;;-2.10;99.90;;;;;;4910967;29;20053;-81
2023/02/09 01:37:34;;;;;;;25.02;14.25;;;-2.10;99.90;;;;;;4897021;29;20083;-81
2023/02/09 01:40:02;;;;;;;26.27;14.73;;;-2.10;99.90;;;;;;4898901;29;20049;-80
2023/02/09 01:42:29;;;;;;;25.35;14.50;;;-2.20;99.90;;;;;;4879934;29;20116;-80
2023/02/09 01:45:19;;;;;;;23.83;13.90;;;-2.20;99.90;;;;;;4898606;29;20056;-81
2023/02/09 01:47:53;;;;;;;22.55;13.82;;;-2.20;99.90;;;;;;4891527;29;20064;-80
2023/02/09 01:50:20;;;;;;;22.08;13.18;;;-2.20;99.90;;;;;;4886717;29;20104;-80
2023/02/09 01:52:48;;;;;;;24.50;13.57;;;-2.20;99.90;;;;;;4898974;29;20459;-80
2023/02/09 01:55:19;;;;;;;26.75;15.48;;;-2.20;99.90;;;;;;4900479;29;20131;-79
2023/02/09 01:57:51;;;;;;;27.00;15.13;;;-2.20;99.90;;;;;;4899955;29;20486;-80
2023/02/09 02:00:20;;;;;;;27.85;14.02;;;-2.20;99.90;;;;;;4901391;29;20044;-80
2023/02/09 02:03:04;;;;;;;23.20;13.45;;;-2.20;99.90;;;;;;4896189;29;20482;-79
2023/02/09 02:05:36;;;;;;;24.90;14.52;;;-2.20;99.90;;;;;;4884231;29;20142;-81
2023/02/09 02:08:15;;;;;;;24.38;13.85;;;-2.30;99.90;;;;;;4894681;29;20093;-80
2023/02/09 02:10:42;;;;;;;24.30;14.48;;;-2.30;99.90;;;;;;4896021;29;20515;-80
2023/02/09 02:13:09;;;;;;;28.65;15.30;;;-2.30;99.90;;;;;;4896103;29;20139;-80
2023/02/09 02:16:02;;;;;;;25.52;14.18;;;-2.30;99.90;;;;;;4887630;29;20049;-81
2023/02/09 02:19:13;;;;;;;25.25;14.98;;;-2.30;99.90;;;;;;4881646;29;20507;-81
2023/02/09 02:22:08;;;;;;;26.77;14.75;;;-2.30;99.90;;;;;;4900557;29;20073;-80
2023/02/09 02:25:06;;;;;;;25.05;14.75;;;-2.30;99.90;;;;;;4897710;29;20145;-80
2023/02/09 02:27:55;;;;;;;25.88;14.40;;;-2.30;99.90;;;;;;4899416;29;20055;-79
2023/02/09 02:30:49;;;;;;;26.15;14.70;;;-2.30;99.90;;;;;;4890904;29;20068;-79
2023/02/09 02:33:38;;;;;;;24.48;13.38;;;-2.40;99.90;;;;;;4886733;29;20045;-80
2023/02/09 02:36:19;;;;;;;18.63;10.95;;;-2.40;99.90;;;;;;4899297;29;20120;-80
2023/02/09 02:39:15;;;;;;;27.20;13.32;;;-2.40;99.90;;;;;;4876561;29;20242;-80
2023/02/09 02:44:40;;;;;;;28.85;15.50;;;-2.40;99.90;;;;;;4897195;29;20692;-81
2023/02/09 02:47:12;;;;;;;22.27;13.50;;;-2.40;99.90;;;;;;4898475;29;20566;-81
2023/02/09 02:49:43;;;;;;;29.40;15.20;;;-2.40;99.90;;;;;;4893516;29;20085;-79
2023/02/09 02:52:10;;;;;;;30.17;16.85;;;-2.40;99.90;;;;;;4897501;29;20207;-80
2023/02/09 02:55:08;;;;;;;24.85;14.07;;;-2.40;99.90;;;;;;4900125;29;20049;-80
2023/02/09 02:57:40;;;;;;;28.13;15.50;;;-2.40;99.90;;;;;;4893805;29;20512;-81
2023/02/09 03:00:15;;;;;;;25.48;14.63;;;-2.40;99.90;;;;;;4893876;29;20195;-80
2023/02/09 03:02:47;;;;;;;26.85;15.98;;;-2.40;99.90;;;;;;4900579;29;20111;-80
2023/02/09 03:05:15;;;;;;;27.90;14.80;;;-2.40;99.90;;;;;;4893642;29;20132;-80
2023/02/09 03:07:43;;;;;;;27.27;15.68;;;-2.40;99.90;;;;;;4896989;29;20136;-80
2023/02/09 03:10:29;;;;;;;27.85;15.55;;;-2.50;99.90;;;;;;4904225;29;20061;-80
2023/02/09 03:13:36;;;;;;;29.88;15.38;;;-2.50;99.90;;;;;;4882358;29;20116;-80
2023/02/09 03:16:46;;;;;;;25.77;14.85;;;-2.50;99.90;;;;;;4899974;29;20415;-80
2023/02/09 03:19:41;;;;;;;30.23;14.82;;;-2.40;99.90;;;;;;4896567;29;20075;-81
2023/02/09 03:22:34;;;;;;;25.50;14.93;;;-2.40;99.90;;;;;;4899771;29;20049;-81
2023/02/09 03:25:06;;;;;;;30.60;15.05;;;-2.50;99.90;;;;;;4884836;29;20076;-79
2023/02/09 03:27:41;;;;;;;28.20;15.13;;;-2.50;99.90;;;;;;4897107;29;20063;-80
2023/02/09 03:30:12;;;;;;;29.02;14.80;;;-2.50;99.90;;;;;;4904260;29;20135;-79
2023/02/09 03:32:41;;;;;;;27.88;14.65;;;-2.50;99.90;;;;;;4900587;29;20101;-80
2023/02/09 03:35:11;;;;;;;29.00;15.17;;;-2.50;99.90;;;;;;4898716;29;20052;-79
2023/02/09 03:37:38;;;;;;;23.73;13.85;;;-2.50;99.90;;;;;;4883506;29;20317;-79
2023/02/09 03:40:05;;;;;;;26.75;14.68;;;-2.60;99.90;;;;;;4899134;29;20508;-80
2023/02/09 03:42:32;;;;;;;25.70;14.55;;;-2.60;99.90;;;;;;4891844;29;20053;-80
2023/02/09 03:44:59;;;;;;;27.88;15.02;;;-2.60;99.90;;;;;;4873849;29;20149;-80
2023/02/09 03:47:25;;;;;;;28.70;15.27;;;-2.50;99.90;;;;;;4898513;29;20052;-80
2023/02/09 03:49:52;;;;;;;25.48;14.90;;;-2.60;99.90;;;;;;4893719;29;20143;-80
2023/02/09 03:52:19;;;;;;;28.25;14.65;;;-2.60;99.90;;;;;;4902296;29;20048;-80
2023/02/09 03:54:46;;;;;;;24.75;14.98;;;-2.60;99.90;;;;;;4902000;29;20055;-79
2023/02/09 03:57:13;;;;;;;29.00;15.05;;;-2.60;99.90;;;;;;4901251;29;20048;-80
2023/02/09 03:59:40;;;;;;;27.35;15.48;;;-2.60;99.90;;;;;;4895227;29;20424;-80
2023/02/09 04:02:08;;;;;;;28.27;14.98;;;-2.60;99.90;;;;;;4897750;29;20078;-80
2023/02/09 04:04:36;;;;;;;28.08;13.90;;;-2.60;99.90;;;;;;4880245;29;20056;-79
2023/02/09 04:07:03;;;;;;;26.13;15.10;;;-2.60;99.90;;;;;;4877547;29;20078;-80
2023/02/09 04:09:29;;;;;;;29.00;14.55;;;-2.60;99.90;;;;;;4887739;29;20492;-79
2023/02/09 04:11:56;;;;;;;24.45;14.10;;;-2.60;99.90;;;;;;4892656;29;20116;-80
2023/02/09 04:14:23;;;;;;;31.40;15.35;;;-2.60;99.90;;;;;;4902768;29;20052;-80
2023/02/09 04:16:49;;;;;;;26.08;14.85;;;-2.60;99.90;;;;;;4900172;29;20088;-80
2023/02/09 04:19:16;;;;;;;26.98;14.43;;;-2.60;99.90;;;;;;4902655;29;20048;-81
2023/02/09 04:21:43;;;;;;;26.77;14.90;;;-2.60;99.90;;;;;;4891588;29;20063;-80
2023/02/09 04:24:10;;;;;;;25.90;14.90;;;-2.60;99.90;;;;;;4900142;29;20087;-81
2023/02/09 04:26:37;;;;;;;26.95;14.25;;;-2.60;99.90;;;;;;4891352;29;20535;-80
2023/02/09 04:29:03;;;;;;;27.70;14.52;;;-2.60;99.90;;;;;;4896689;29;20049;-80
2023/02/09 04:31:30;;;;;;;29.85;15.32;;;-2.70;99.90;;;;;;4879888;29;20077;-80
2023/02/09 04:33:57;;;;;;;30.58;15.85;;;-2.70;99.90;;;;;;4892888;29;20049;-80
2023/02/09 04:36:24;;;;;;;26.63;14.63;;;-2.70;99.90;;;;;;4876343;29;20080;-80
2023/02/09 04:38:51;;;;;;;28.88;15.02;;;-2.70;99.90;;;;;;4901850;29;20101;-80
2023/02/09 04:41:18;;;;;;;25.55;14.07;;;-2.70;99.90;;;;;;4894598;29;20044;-79
2023/02/09 04:43:45;;;;;;;29.30;15.05;;;-2.70;99.90;;;;;;4894115;29;20059;-78
2023/02/09 04:46:14;;;;;;;24.65;14.27;;;-2.70;99.90;;;;;;4897885;29;20051;-81
2023/02/09 04:48:42;;;;;;;23.90;14.20;;;-2.70;99.90;;;;;;4899007;29;20112;-80
2023/02/09 04:51:09;;;;;;;28.08;15.15;;;-2.70;99.90;;;;;;4876067;29;20053;-80
2023/02/09 04:53:36;;;;;;;26.63;14.90;;;-2.80;99.90;;;;;;4887968;29;20053;-80
2023/02/09 04:56:03;;;;;;;27.98;13.25;;;-2.80;99.90;;;;;;4894006;29;20049;-80
2023/02/09 05:01:19;;;;;;;23.88;14.00;;;-2.80;99.90;;;;;;4903936;29;20498;-79
2023/02/09 05:03:46;;;;;;;30.67;16.10;;;-2.80;99.90;;;;;;4902475;29;20488;-79
2023/02/09 05:06:13;;;;;;;27.52;14.13;;;-2.80;99.90;;;;;;4902015;29;20498;-80
2023/02/09 05:08:39;;;;;;;26.90;15.05;;;-2.80;99.90;;;;;;4895572;29;20058;-79
2023/02/09 05:11:06;;;;;;;26.25;13.73;;;-2.80;99.90;;;;;;4895604;29;20079;-79
2023/02/09 05:13:33;;;;;;;28.25;15.00;;;-2.80;99.90;;;;;;4898825;29;20515;-80
2023/02/09 05:16:08;;;;;;;22.67;13.15;;;-2.80;99.90;;;;;;4897775;29;20117;-81
2023/02/09 05:18:35;;;;;;;27.30;14.00;;;-2.80;99.90;;;;;;4898884;29;20064;-80
2023/02/09 05:21:02;;;;;;;26.83;14.82;;;-2.80;99.90;;;;;;4887126;29;20049;-80
2023/02/09 05:23:29;;;;;;;26.45;14.00;;;-2.80;99.90;;;;;;4901861;29;20112;-81
2023/02/09 05:25:56;;;;;;;27.67;14.07;;;-2.80;99.90;;;;;;4898561;29;20056;-79
2023/02/09 05:28:24;;;;;;;28.52;14.65;;;-2.90;99.90;;;;;;4880993;29;20597;-80
2023/02/09 05:30:52;;;;;;;23.27;13.45;;;-2.90;99.90;;;;;;4895891;29;20057;-80
2023/02/09 05:33:23;;;;;;;27.65;13.93;;;-2.90;99.90;;;;;;4893468;29;20100;-80
2023/02/09 05:35:52;;;;;;;25.55;15.02;;;-2.90;99.90;;;;;;4889659;29;20087;-80
2023/02/09 05:38:19;;;;;;;27.80;14.23;;;-2.90;99.90;;;;;;4892833;29;20420;-79
2023/02/09 05:40:45;;;;;;;26.38;14.48;;;-2.90;99.90;;;;;;4895208;29;20065;-80
2023/02/09 05:43:13;;;;;;;28.00;14.75;;;-2.90;99.90;;;;;;4891542;29;20467;-80
2023/02/09 05:45:39;;;;;;;24.67;14.07;;;-2.90;99.90;;;;;;4891046;29;20084;-80
2023/02/09 05:48:06;;;;;;;24.70;13.75;;;-2.90;99.90;;;;;;4902428;29;20061;-79
2023/02/09 05:50:34;;;;;;;23.45;13.93;;;-2.90;99.90;;;;;;4879807;29;20059;-80
2023/02/09 05:53:01;;;;;;;25.02;13.55;;;-2.90;99.90;;;;;;4896956;29;20048;-79
2023/02/09 05:55:28;;;;;;;24.00;12.98;;;-2.90;99.90;;;;;;4894457;29;20083;-80
2023/02/09 05:57:55;;;;;;;23.60;13.02;;;-2.90;99.90;;;;;;4881458;29;20153;-79
2023/02/09 06:00:23;;;;;;;24.45;12.70;;;-2.90;99.90;;;;;;4895303;29;20579;-78
2023/02/09 06:02:50;;;;;;;27.85;15.38;;;-2.90;99.90;;;;;;4888874;29;20429;-79
2023/02/09 06:05:19;;;;;;;25.48;15.82;;;-3.00;99.90;;;;;;4888979;29;20060;-80
2023/02/09 06:07:47;;;;;;;28.92;16.60;;;-2.90;99.90;;;;;;4897691;29;20460;-80
2023/02/09 06:10:13;;;;;;;29.15;17.00;;;-3.00;99.90;;;;;;4898994;29;20164;-79
2023/02/09 06:12:40;;;;;;;32.42;16.75;;;-3.00;99.90;;;;;;4902709;29;20087;-81
2023/02/09 06:15:07;;;;;;;32.35;16.85;;;-3.00;99.90;;;;;;4905570;29;20052;-80
2023/02/09 06:17:34;;;;;;;28.88;15.05;;;-3.00;99.90;;;;;;4894301;29;20471;-80
2023/02/09 06:20:01;;;;;;;28.35;16.63;;;-3.00;99.90;;;;;;4895819;29;20053;-80
2023/02/09 06:22:28;;;;;;;28.35;15.73;;;-3.00;99.90;;;;;;4894009;29;20079;-80
2023/02/09 06:24:55;;;;;;;31.17;17.23;;;-3.00;99.90;;;;;;4898841;29;20063;-80
2023/02/09 06:27:22;;;;;;;32.30;18.15;;;-3.00;99.90;;;;;;4894220;29;20073;-79
2023/02/09 06:29:49;;;;;;;35.90;17.70;;;-3.00;99.90;;;;;;4890963;29;20064;-80
2023/02/09 06:32:15;;;;;;;33.30;17.23;;;-3.00;99.90;;;;;;4901310;29;20502;-80
2023/02/09 06:34:42;;;;;;;36.72;19.20;;;-3.00;99.90;;;;;;4902655;29;20456;-80
2023/02/09 06:37:09;;;;;;;33.63;18.15;;;-3.00;99.90;;;;;;4890040;29;20471;-80
2023/02/09 06:39:35;;;;;;;33.13;17.20;;;-3.00;99.90;;;;;;4899752;29;20053;-80
2023/02/09 06:42:02;;;;;;;34.60;18.48;;;-3.00;99.90;;;;;;4904202;29;20049;-80
2023/02/09 06:44:29;;;;;;;38.25;18.27;;;-3.00;99.90;;;;;;4896528;29;20532;-80
2023/02/09 06:46:56;;;;;;;34.33;19.17;;;-3.00;99.90;;;;;;4894411;29;20065;-79
2023/02/09 06:49:24;;;;;;;33.33;18.80;;;-3.00;99.90;;;;;;4900742;29;20083;-80
2023/02/09 06:51:51;;;;;;;44.70;20.40;;;-3.00;99.90;;;;;;4883159;29;20078;-80
2023/02/09 06:54:18;;;;;;;40.03;21.45;;;-3.00;99.90;;;;;;4877426;29;20048;-81
2023/02/09 06:56:46;;;;;;;38.45;20.33;;;-3.00;99.90;;;;;;4904726;29;20057;-80
2023/02/09 06:59:13;;;;;;;40.33;20.10;;;-3.00;99.90;;;;;;4907057;29;20044;-81
2023/02/09 07:01:40;;;;;;;36.38;20.35;;;-3.00;99.90;;;;;;4900632;29;20143;-81
2023/02/09 07:04:07;;;;;;;38.63;19.10;;;-3.00;99.90;;;;;;4902051;29;20052;-80
2023/02/09 07:06:33;;;;;;;37.13;18.73;;;-3.00;99.90;;;;;;4899725;29;20538;-81
2023/02/09 07:09:00;;;;;;;37.20;17.15;;;-3.00;99.90;;;;;;4907945;29;20487;-81
2023/02/09 07:11:27;;;;;;;34.38;17.17;;;-3.00;99.90;;;;;;4903301;29;20053;-80
2023/02/09 07:13:53;;;;;;;33.35;17.55;;;-3.00;99.90;;;;;;4900871;29;20059;-81
2023/02/09 07:16:20;;;;;;;35.10;18.23;;;-3.00;99.90;;;;;;4908062;29;20095;-80
2023/02/09 07:18:47;;;;;;;33.03;18.70;;;-3.00;99.90;;;;;;4911854;29;20077;-79
2023/02/09 07:21:17;;;;;;;36.25;17.90;;;-3.00;99.90;;;;;;4913433;29;20055;-80
2023/02/09 07:23:44;;;;;;;34.22;17.05;;;-3.00;99.90;;;;;;4913116;29;20087;-79
2023/02/09 07:26:14;;;;;;;36.78;18.88;;;-3.00;99.90;;;;;;4909808;29;20053;-80
2023/02/09 07:28:41;;;;;;;41.05;19.00;;;-3.00;99.90;;;;;;4898982;29;20076;-80
2023/02/09 07:31:11;;;;;;;38.20;19.48;;;-2.90;99.90;;;;;;4895384;29;20483;-80
2023/02/09 07:33:38;;;;;;;33.22;18.30;;;-2.90;99.90;;;;;;4899591;29;20088;-80
2023/02/09 07:36:06;;;;;;;33.08;15.98;;;-2.90;99.90;;;;;;4899181;29;20080;-80
2023/02/09 07:38:34;;;;;;;35.97;18.35;;;-2.90;99.90;;;;;;4890641;29;20164;-80
2023/02/09 07:41:03;;;;;;;36.80;18.77;;;-2.90;99.90;;;;;;4872714;29;20076;-80
2023/02/09 07:43:30;;;;;;;32.80;17.10;;;-2.90;99.90;;;;;;4894267;29;20463;-80
2023/02/09 07:46:05;;;;;;;28.02;15.98;;;-2.90;99.90;;;;;;4880305;29;20061;-80
2023/02/09 07:48:33;;;;;;;31.00;16.20;;;-2.80;99.90;;;;;;4898438;29;20657;-80
2023/02/09 07:51:00;;;;;;;30.15;17.77;;;-2.80;99.90;;;;;;4899843;29;20088;-80
2023/02/09 07:53:27;;;;;;;34.28;16.33;;;-2.80;99.90;;;;;;4900856;29;20091;-80
2023/02/09 07:55:54;;;;;;;27.02;16.20;;;-2.80;99.90;;;;;;4892256;29;20056;-81
2023/02/09 07:58:21;;;;;;;32.03;16.15;;;-2.70;99.90;;;;;;4888741;29;20085;-81
2023/02/09 08:00:49;;;;;;;35.90;18.67;;;-2.70;99.90;;;;;;4896460;29;20477;-80
2023/02/09 08:03:19;;;;;;;34.42;18.23;;;-2.70;99.90;;;;;;4897463;29;20048;-82
2023/02/09 08:05:54;;;;;;;36.58;18.00;;;-2.60;99.90;;;;;;4901199;29;20747;-80
2023/02/09 08:08:21;;;;;;;34.92;17.73;;;-2.60;99.90;;;;;;4899261;29;20055;-79
2023/02/09 08:10:48;;;;;;;38.90;18.42;;;-2.60;99.90;;;;;;4896444;29;20419;-80
2023/02/09 08:13:15;;;;;;;29.83;17.42;;;-2.50;99.90;;;;;;4895814;29;20192;-80
2023/02/09 08:15:54;;;;;;;36.70;18.70;;;-2.50;99.90;;;;;;4889110;29;20045;-80
2023/02/09 08:18:34;;;;;;;32.50;18.60;;;-2.50;99.90;;;;;;4881869;29;20491;-80
2023/02/09 08:21:04;;;;;;;36.20;20.33;;;-2.40;99.90;;;;;;4887187;29;20095;-79
2023/02/09 08:23:33;;;;;;;50.05;24.20;;;-2.40;99.90;;;;;;4876636;29;20057;-79
2023/02/09 08:26:05;;;;;;;38.85;21.80;;;-2.40;99.90;;;;;;4894784;29;20512;-80
2023/02/09 08:28:32;;;;;;;44.70;20.42;;;-2.30;99.90;;;;;;4888541;29;20056;-80
2023/02/09 08:31:12;;;;;;;48.83;24.73;;;-2.30;99.90;;;;;;4880198;29;20059;-78
2023/02/09 08:33:39;;;;;;;47.33;25.25;;;-2.20;99.90;;;;;;4901559;29;20044;-80
2023/02/09 08:36:06;;;;;;;39.45;23.15;;;-2.20;99.90;;;;;;4903075;29;20080;-81
2023/02/09 08:38:34;;;;;;;40.25;22.42;;;-2.20;99.90;;;;;;4909098;29;20073;-81
2023/02/09 08:41:03;;;;;;;45.30;23.55;;;-2.10;99.90;;;;;;4899592;29;20479;-80
2023/02/09 08:43:30;;;;;;;40.57;23.33;;;-2.10;99.90;;;;;;4908969;29;20068;-81
2023/02/09 08:46:05;;;;;;;42.78;22.63;;;-2.00;99.90;;;;;;4903760;29;20052;-80
2023/02/09 08:48:33;;;;;;;42.78;22.90;;;-2.00;99.90;;;;;;4891133;29;20086;-81
2023/02/09 08:51:02;;;;;;;45.20;23.97;;;-1.90;99.90;;;;;;4898816;29;20057;-82
2023/02/09 08:53:29;;;;;;;44.17;26.35;;;-1.90;99.90;;;;;;4907972;29;20606;-80
2023/02/09 08:55:56;;;;;;;41.95;23.95;;;-1.90;99.90;;;;;;4905439;29;20048;-81
2023/02/09 08:58:24;;;;;;;42.95;23.85;;;-1.80;99.90;;;;;;4907940;29;20040;-80
2023/02/09 09:00:58;;;;;;;43.40;24.80;;;-1.80;99.90;;;;;;4901716;29;20420;-80
2023/02/09 09:03:30;;;;;;;42.92;24.17;;;-1.70;99.90;;;;;;4902697;29;20048;-79
2023/02/09 09:06:05;;;;;;;43.20;23.40;;;-1.70;99.90;;;;;;4903370;29;20060;-80
2023/02/09 09:08:34;;;;;;;39.67;23.60;;;-1.60;99.90;;;;;;4893934;29;20036;-80
2023/02/09 09:11:00;;;;;;;43.05;24.58;;;-1.60;99.90;;;;;;4907173;29;20127;-78
2023/02/09 09:13:27;;;;;;;45.90;24.35;;;-1.50;99.90;;;;;;4889809;29;20057;-80
2023/02/09 09:15:54;;;;;;;48.33;24.05;;;-1.50;99.90;;;;;;4910038;29;20037;-80
2023/02/09 09:18:23;;;;;;;45.65;25.45;;;-1.50;99.90;;;;;;4911282;29;20040;-77
2023/02/09 09:20:50;;;;;;;43.20;24.58;;;-1.40;99.90;;;;;;4906968;29;20053;-80
2023/02/09 09:23:17;;;;;;;40.50;23.33;;;-1.40;99.90;;;;;;4904763;29;20083;-79
2023/02/09 09:25:44;;;;;;;43.25;24.90;;;-1.40;99.90;;;;;;4903234;29;20084;-79
2023/02/09 09:28:11;;;;;;;41.97;25.90;;;-1.40;99.90;;;;;;4899198;29;20061;-79
2023/02/09 09:30:38;;;;;;;42.45;28.05;;;-1.30;99.90;;;;;;4877630;29;20121;-80
2023/02/09 09:33:05;;;;;;;43.95;26.75;;;-1.20;99.90;;;;;;4892196;29;20139;-79
2023/02/09 09:35:31;;;;;;;40.83;26.27;;;-1.20;99.90;;;;;;4888312;29;20053;-79
2023/02/09 09:37:59;;;;;;;41.92;26.67;;;-1.10;99.90;;;;;;4882805;29;20051;-80
2023/02/09 09:40:32;;;;;;;47.60;25.75;;;-1.00;99.90;;;;;;4898292;29;20056;-79
2023/02/09 09:43:03;;;;;;;45.63;26.45;;;-1.00;99.90;;;;;;4881684;29;20059;-77
2023/02/09 09:45:34;;;;;;;43.17;25.42;;;-1.00;99.90;;;;;;4898741;29;20142;-80
2023/02/09 09:48:01;;;;;;;47.75;26.50;;;-0.90;99.90;;;;;;4893944;29;20077;-78
2023/02/09 09:50:40;;;;;;;43.45;26.65;;;-0.90;99.90;;;;;;4888355;29;20095;-78
2023/02/09 09:53:06;;;;;;;41.67;26.30;;;-0.80;99.90;;;;;;4891825;29;20052;-81
2023/02/09 09:55:34;;;;;;;42.50;26.02;;;-0.80;99.90;;;;;;4899113;29;20090;-80
2023/02/09 09:58:05;;;;;;;46.58;27.02;;;-0.70;99.90;;;;;;4888373;29;20521;-81
2023/02/09 10:00:38;;;;;;;44.95;26.10;;;-0.70;99.90;;;;;;4893164;29;20080;-80
2023/02/09 10:03:17;;;;;;;50.38;26.50;;;-0.70;99.90;;;;;;4907797;29;20132;-79
2023/02/09 10:05:46;;;;;;;45.33;28.35;;;-0.60;99.90;;;;;;4902577;29;20060;-81
2023/02/09 10:08:27;;;;;;;44.58;27.50;;;-0.60;99.90;;;;;;4902648;29;20048;-78
2023/02/09 10:11:04;;;;;;;48.17;30.77;;;-0.50;99.90;;;;;;4903093;29;20056;-80
2023/02/09 10:13:34;;;;;;;47.47;28.80;;;-0.40;99.90;;;;;;4896088;29;20052;-79
2023/02/09 10:16:01;;;;;;;51.00;27.83;;;-0.40;99.90;;;;;;4901873;29;20051;-80
2023/02/09 10:18:29;;;;;;;44.28;28.10;;;-0.40;99.90;;;;;;4893779;29;20077;-80
2023/02/09 10:21:03;;;;;;;46.05;26.42;;;-0.30;99.90;;;;;;4903437;29;20060;-80
2023/02/09 10:23:48;;;;;;;48.22;29.25;;;-0.30;99.90;;;;;;4902154;29;20112;-80
2023/02/09 10:26:24;;;;;;;42.88;25.98;;;-0.20;99.90;;;;;;4900986;29;20056;-79
2023/02/09 10:28:54;;;;;;;44.92;26.17;;;-0.20;99.90;;;;;;4905889;29;20136;-81
2023/02/09 10:31:23;;;;;;;46.97;27.25;;;-0.10;99.90;;;;;;4901017;29;20410;-80
2023/02/09 10:34:03;;;;;;;43.05;26.05;;;-0.10;99.90;;;;;;4896951;29;20048;-79
2023/02/09 10:36:35;;;;;;;;;;;0.00;99.90;;;;;;4882893;29;20082;-80
2023/02/09 10:39:15;;;;;;;44.75;25.52;;;0.00;99.90;;;;;;4902714;29;20034;-78
2023/02/09 10:41:45;;;;;;;47.47;27.38;;;0.10;99.90;;;;;;4898161;29;20480;-79
2023/02/09 10:44:18;;;;;;;;;;;0.10;99.90;;;;;;4874673;29;20107;-78
2023/02/09 10:46:46;;;;;;;44.25;27.60;;;0.10;99.90;;;;;;4894509;29;20042;-80
2023/02/09 10:49:34;;;;;;;47.65;28.15;;;0.20;99.90;;;;;;4910063;29;20063;-79
2023/02/09 10:52:32;;;;;;;48.67;27.08;;;0.30;99.90;;;;;;4903571;29;20076;-78
2023/02/09 10:55:33;;;;;;;44.63;27.13;;;0.30;99.90;;;;;;4887210;29;20049;-79
2023/02/09 10:58:28;;;;;;;47.42;26.55;;;0.40;99.90;;;;;;4895569;29;20112;-78
2023/02/09 11:01:10;;;;;;;46.33;25.52;;;0.50;99.90;;;;;;4896716;29;20563;-79
2023/02/09 11:03:55;;;;;;;44.85;24.02;;;0.50;99.90;;;;;;4901699;29;20084;-80
2023/02/09 11:06:22;;;;;;;46.97;25.38;;;0.60;99.90;;;;;;4895288;29;20056;-80
2023/02/09 11:08:55;;;;;;;43.33;24.90;;;0.70;99.90;;;;;;4897685;29;20080;-79
2023/02/09 11:11:29;;;;;;;39.80;23.42;;;0.80;99.90;;;;;;4905366;29;20486;-81
2023/02/09 11:13:56;;;;;;;38.75;24.73;;;0.90;99.90;;;;;;4900654;29;20080;-80
2023/02/09 11:16:43;;;;;;;41.70;23.40;;;1.00;99.90;;;;;;4900294;29;20495;-81
2023/02/09 11:19:21;;;;;;;28.60;14.93;;;1.10;99.90;;;;;;4902383;29;20073;-81
2023/02/09 11:21:56;;;;;;;27.23;15.07;;;1.20;99.90;;;;;;4902736;29;20051;-81
2023/02/09 11:24:42;;;;;;;25.50;13.75;;;1.30;99.90;;;;;;4882071;29;20080;-79
2023/02/09 11:27:21;;;;;;;19.38;11.65;;;1.40;99.90;;;;;;4897685;29;20081;-81
2023/02/09 11:30:05;;;;;;;18.33;11.55;;;1.50;99.90;;;;;;4893810;29;20059;-81
2023/02/09 11:32:42;;;;;;;19.52;10.95;;;1.60;99.90;;;;;;4882598;29;20087;-80
2023/02/09 11:35:17;;;;;;;26.17;12.70;;;1.70;99.90;;;;;;4908607;29;20116;-81
2023/02/09 11:37:52;;;;;;;23.73;11.55;;;1.80;99.90;;;;;;4905126;29;20048;-80
2023/02/09 11:40:27;;;;;;;20.23;12.18;;;1.90;99.90;;;;;;4899717;29;20072;-80
2023/02/09 11:43:09;;;;;;;21.13;12.32;;;2.00;99.90;;;;;;4900945;29;20052;-81
2023/02/09 11:45:41;;;;;;;21.70;11.23;;;2.20;99.90;;;;;;4903261;29;20104;-80
2023/02/09 11:48:27;;;;;;;22.20;11.68;;;2.30;99.90;;;;;;4891637;29;20053;-81
2023/02/09 11:51:17;;;;;;;18.65;10.57;;;2.50;99.90;;;;;;4903836;29;20083;-79
2023/02/09 11:54:03;;;;;;;16.42;9.55;;;2.50;99.90;;;;;;4892007;29;20168;-79
2023/02/09 11:56:35;;;;;;;19.35;10.80;;;2.60;99.90;;;;;;4896444;29;20064;-81
2023/02/09 11:59:27;;;;;;;21.50;10.82;;;2.60;99.90;;;;;;4900100;29;20055;-80
2023/02/09 12:02:12;;;;;;;20.67;10.73;;;2.60;99.90;;;;;;4898978;29;20116;-81
2023/02/09 12:04:53;;;;;;;21.30;11.85;;;2.70;99.90;;;;;;4891032;29;20072;-79
2023/02/09 12:07:33;;;;;;;16.73;11.07;;;2.80;99.90;;;;;;4889290;29;20049;-80
2023/02/09 12:10:29;;;;;;;21.75;11.85;;;2.80;99.90;;;;;;4900296;29;20485;-81
2023/02/09 12:13:18;;;;;;;21.55;11.60;;;2.90;99.90;;;;;;4895547;29;20063;-81
2023/02/09 12:15:53;;;;;;;18.60;11.73;;;2.90;99.90;;;;;;4901221;29;20045;-81
2023/02/09 12:18:23;;;;;;;24.20;12.15;;;2.90;99.90;;;;;;4896892;29;20416;-81
2023/02/09 12:20:56;;;;;;;22.90;12.52;;;3.00;99.90;;;;;;4904290;29;20049;-80
2023/02/09 12:23:43;;;;;;;18.75;12.25;;;3.00;99.90;;;;;;4904094;29;20044;-80
2023/02/09 12:26:10;;;;;;;21.10;12.27;;;3.10;99.90;;;;;;4907009;29;20483;-82
2023/02/09 12:28:41;;;;;;;23.10;12.77;;;3.10;99.90;;;;;;4888788;29;20085;-81
2023/02/09 12:31:23;;;;;;;23.25;13.07;;;3.10;99.90;;;;;;4902177;29;20068;-81
2023/02/09 12:34:09;;;;;;;20.70;11.55;;;3.20;99.90;;;;;;4890911;29;20053;-81
2023/02/09 12:36:38;;;;;;;21.98;12.68;;;3.20;99.90;;;;;;4902259;29;20112;-82
2023/02/09 12:39:22;;;;;;;20.92;12.27;;;3.20;99.90;;;;;;4898070;29;20113;-80
2023/02/09 12:41:49;;;;;;;21.25;12.55;;;3.30;99.90;;;;;;4903553;29;20056;-82
2023/02/09 12:44:17;;;;;;;27.17;13.43;;;3.30;99.90;;;;;;4885936;29;20100;-82
2023/02/09 12:46:44;;;;;;;23.35;13.43;;;3.30;99.90;;;;;;4889712;29;20092;-81
2023/02/09 12:49:10;;;;;;;24.23;12.43;;;3.30;99.90;;;;;;4883127;29;20049;-81
2023/02/09 12:51:49;;;;;;;23.27;13.27;;;3.40;99.90;;;;;;4881665;29;20053;-82
2023/02/09 12:54:45;;;;;;;22.33;12.68;;;3.40;99.90;;;;;;4891016;29;20059;-81
2023/02/09 12:57:15;;;;;;;21.63;13.32;;;3.40;99.90;;;;;;4873799;29;20381;-81
2023/02/09 12:59:51;;;;;;;20.77;13.25;;;3.40;99.90;;;;;;4880433;29;20108;-80